Aérodrome :
LOGIN :

S'inscrire | Disclaimer

   EN    FR    IT 

 










Légende :    VFR   VFR Marginal   IFR   IFR Intensif   IFR Très Intensif
Visi : 
Plafond : 
>= 8 km
>= 3000ft
5 à 8 km
1000 à 3000 ft
1500m à 5 km
500 à 1000 ft
800 à 1500m
200 à 500 ft
< 800m
< 200 ft
Symboles :   Orages  Brouillard  Fortes neiges  Fortes précipitations  Vent > 20 kt
SIGMETs :   Divers  Orages  Givrage  Turbulence  Onde Orograph.  Cendres Volcan.






- Altitude de l'aérodrome : 83 ft
- Code IATA : LHR


EGLL - London Heathrow

DERNIER METAR :
  • 190050Z AUTO 05002KT 9999 NCD 14/12 Q1013

METARs EXPIRÉS :
  • 190020Z AUTO 03002KT 9999 NCD 16/13 Q1013
  • 182350Z AUTO 02001KT 9999 NCD 16/12 Q1013 NOSIG
  • 182320Z AUTO 03002KT 9999 NCD 17/12 Q1013 NOSIG
  • 182250Z AUTO 07001KT 9999 NCD 18/12 Q1013
  • 182220Z AUTO 10003KT 9999 NCD 18/11 Q1013

TAF TAF EGLL
Valide du 19 à 00h jusqu'au 20 à 06h UTC


182302Z 1900/2006 03005KT 9999 SCT045
PROB40
TEMPO 1905/1920 7000 RA BKN010
PROB30
TEMPO 1906/1912 4000 +SHRA BKN008



MET'MAP, la Météo Aéronautique d'un coup d'oeil ! - Copyright ORBIFLY Décembre 2007 - Disclaimer

ORBIFLY MET'MAP TEAM :

Programmation & Développement : Alexandra Zaïnal
Sur une idée originale de : Baudouin d'Aumeries
Assistance à la programmation : Marc-Olivier Méhu
Soutien technique & logistique : Manuel Goepfert

Contact : metmap@orbifly.com




SOURCES & CREDITS :

   NOAA